sensor_id;sensor_type;location;lat;lon;timestamp;temperature;humidity
12130;DHT22;6128;59.340;18.040;2023-07-31T00:00:42;16.60;99.90
12130;DHT22;6128;59.340;18.040;2023-07-31T00:03:10;16.60;99.90
12130;DHT22;6128;59.340;18.040;2023-07-31T00:05:37;16.60;99.90
12130;DHT22;6128;59.340;18.040;2023-07-31T00:08:04;16.50;99.90
12130;DHT22;6128;59.340;18.040;2023-07-31T00:10:31;16.50;99.90
12130;DHT22;6128;59.340;18.040;2023-07-31T00:12:59;16.50;99.90
12130;DHT22;6128;59.340;18.040;2023-07-31T00:15:27;16.50;99.90
12130;DHT22;6128;59.340;18.040;2023-07-31T00:17:54;16.50;99.90
12130;DHT22;6128;59.340;18.040;2023-07-31T00:20:21;16.50;99.90
12130;DHT22;6128;59.340;18.040;2023-07-31T00:22:49;16.40;99.90
12130;DHT22;6128;59.340;18.040;2023-07-31T00:25:16;16.40;99.90
12130;DHT22;6128;59.340;18.040;2023-07-31T00:27:43;16.30;99.90
12130;DHT22;6128;59.340;18.040;2023-07-31T00:30:12;16.30;99.90
12130;DHT22;6128;59.340;18.040;2023-07-31T00:32:40;16.30;99.90
12130;DHT22;6128;59.340;18.040;2023-07-31T00:35:07;16.30;99.90
12130;DHT22;6128;59.340;18.040;2023-07-31T00:37:34;16.30;99.90
12130;DHT22;6128;59.340;18.040;2023-07-31T00:40:01;16.30;99.90
12130;DHT22;6128;59.340;18.040;2023-07-31T00:42:29;16.20;99.90
12130;DHT22;6128;59.340;18.040;2023-07-31T00:44:56;16.20;99.90
12130;DHT22;6128;59.340;18.040;2023-07-31T00:47:23;16.20;99.90
12130;DHT22;6128;59.340;18.040;2023-07-31T00:49:52;16.20;99.90
12130;DHT22;6128;59.340;18.040;2023-07-31T00:52:19;16.20;99.90
12130;DHT22;6128;59.340;18.040;2023-07-31T00:54:48;16.20;99.90
12130;DHT22;6128;59.340;18.040;2023-07-31T00:57:15;16.20;99.90
12130;DHT22;6128;59.340;18.040;2023-07-31T00:59:42;16.20;99.90
12130;DHT22;6128;59.340;18.040;2023-07-31T01:02:09;16.20;99.90
12130;DHT22;6128;59.340;18.040;2023-07-31T01:04:36;16.20;99.90
12130;DHT22;6128;59.340;18.040;2023-07-31T01:07:11;16.20;99.90
12130;DHT22;6128;59.340;18.040;2023-07-31T01:09:42;16.30;99.90
12130;DHT22;6128;59.340;18.040;2023-07-31T01:12:14;16.30;99.90
12130;DHT22;6128;59.340;18.040;2023-07-31T01:14:51;16.30;99.90
12130;DHT22;6128;59.340;18.040;2023-07-31T01:17:18;16.30;99.90
12130;DHT22;6128;59.340;18.040;2023-07-31T01:19:45;16.30;99.90
12130;DHT22;6128;59.340;18.040;2023-07-31T01:22:28;16.30;99.90
12130;DHT22;6128;59.340;18.040;2023-07-31T01:25:05;16.30;99.90
12130;DHT22;6128;59.340;18.040;2023-07-31T01:27:44;16.30;99.90
12130;DHT22;6128;59.340;18.040;2023-07-31T01:30:16;16.30;99.90
12130;DHT22;6128;59.340;18.040;2023-07-31T01:32:43;16.30;99.90
12130;DHT22;6128;59.340;18.040;2023-07-31T01:35:12;16.30;99.90
12130;DHT22;6128;59.340;18.040;2023-07-31T01:37:39;16.30;99.90
12130;DHT22;6128;59.340;18.040;2023-07-31T01:40:07;16.20;99.90
12130;DHT22;6128;59.340;18.040;2023-07-31T01:42:34;16.20;99.90
12130;DHT22;6128;59.340;18.040;2023-07-31T01:45:04;16.20;99.90
12130;DHT22;6128;59.340;18.040;2023-07-31T01:47:31;16.20;99.90
12130;DHT22;6128;59.340;18.040;2023-07-31T01:49:58;16.30;99.90
12130;DHT22;6128;59.340;18.040;2023-07-31T01:52:25;16.30;99.90
12130;DHT22;6128;59.340;18.040;2023-07-31T01:54:52;16.30;99.90
12130;DHT22;6128;59.340;18.040;2023-07-31T01:57:19;16.30;99.90
12130;DHT22;6128;59.340;18.040;2023-07-31T01:59:46;16.30;99.90
12130;DHT22;6128;59.340;18.040;2023-07-31T02:02:14;16.30;99.90
12130;DHT22;6128;59.340;18.040;2023-07-31T02:04:41;16.30;99.90
12130;DHT22;6128;59.340;18.040;2023-07-31T02:07:08;16.30;99.90
12130;DHT22;6128;59.340;18.040;2023-07-31T02:09:35;16.30;99.90
12130;DHT22;6128;59.340;18.040;2023-07-31T02:12:03;16.30;99.90
12130;DHT22;6128;59.340;18.040;2023-07-31T02:14:30;16.40;99.90
12130;DHT22;6128;59.340;18.040;2023-07-31T02:16:57;16.40;99.90
12130;DHT22;6128;59.340;18.040;2023-07-31T02:19:25;16.40;99.90
12130;DHT22;6128;59.340;18.040;2023-07-31T02:21:52;16.40;99.90
12130;DHT22;6128;59.340;18.040;2023-07-31T02:24:19;16.50;99.90
12130;DHT22;6128;59.340;18.040;2023-07-31T02:26:47;16.50;99.90
12130;DHT22;6128;59.340;18.040;2023-07-31T02:29:14;16.50;99.90
12130;DHT22;6128;59.340;18.040;2023-07-31T02:31:41;16.50;99.90
12130;DHT22;6128;59.340;18.040;2023-07-31T02:34:08;16.50;99.90
12130;DHT22;6128;59.340;18.040;2023-07-31T02:36:36;16.50;99.90
12130;DHT22;6128;59.340;18.040;2023-07-31T02:39:03;16.50;99.90
12130;DHT22;6128;59.340;18.040;2023-07-31T02:41:30;16.50;99.90
12130;DHT22;6128;59.340;18.040;2023-07-31T02:43:58;16.60;99.90
12130;DHT22;6128;59.340;18.040;2023-07-31T02:46:25;16.60;99.90
12130;DHT22;6128;59.340;18.040;2023-07-31T02:48:52;16.60;99.90
12130;DHT22;6128;59.340;18.040;2023-07-31T02:51:19;16.60;99.90
12130;DHT22;6128;59.340;18.040;2023-07-31T02:53:48;16.60;99.90
12130;DHT22;6128;59.340;18.040;2023-07-31T02:56:15;16.60;99.90
12130;DHT22;6128;59.340;18.040;2023-07-31T02:58:42;16.60;99.90
12130;DHT22;6128;59.340;18.040;2023-07-31T03:01:09;16.70;99.90
12130;DHT22;6128;59.340;18.040;2023-07-31T03:03:36;16.70;99.90
12130;DHT22;6128;59.340;18.040;2023-07-31T03:06:03;16.70;99.90
12130;DHT22;6128;59.340;18.040;2023-07-31T03:08:30;16.80;99.90
12130;DHT22;6128;59.340;18.040;2023-07-31T03:10:58;16.70;99.90
12130;DHT22;6128;59.340;18.040;2023-07-31T03:13:25;16.70;99.90
12130;DHT22;6128;59.340;18.040;2023-07-31T03:15:52;16.70;99.90
12130;DHT22;6128;59.340;18.040;2023-07-31T03:18:19;16.80;99.90
12130;DHT22;6128;59.340;18.040;2023-07-31T03:20:46;16.80;99.90
12130;DHT22;6128;59.340;18.040;2023-07-31T03:23:13;16.80;99.90
12130;DHT22;6128;59.340;18.040;2023-07-31T03:25:55;16.80;99.90
12130;DHT22;6128;59.340;18.040;2023-07-31T03:28:24;16.70;99.90
12130;DHT22;6128;59.340;18.040;2023-07-31T03:30:51;16.70;99.90
12130;DHT22;6128;59.340;18.040;2023-07-31T03:33:18;16.70;99.90
12130;DHT22;6128;59.340;18.040;2023-07-31T03:35:45;16.80;99.90
12130;DHT22;6128;59.340;18.040;2023-07-31T03:38:13;16.80;99.90
12130;DHT22;6128;59.340;18.040;2023-07-31T03:40:40;16.90;99.90
12130;DHT22;6128;59.340;18.040;2023-07-31T03:43:07;16.90;99.90
12130;DHT22;6128;59.340;18.040;2023-07-31T03:45:36;17.00;99.90
12130;DHT22;6128;59.340;18.040;2023-07-31T03:48:04;17.00;99.90
12130;DHT22;6128;59.340;18.040;2023-07-31T03:50:31;17.00;99.90
12130;DHT22;6128;59.340;18.040;2023-07-31T03:52:58;17.00;99.90
12130;DHT22;6128;59.340;18.040;2023-07-31T03:55:25;17.00;99.90
12130;DHT22;6128;59.340;18.040;2023-07-31T03:57:52;17.10;99.90
12130;DHT22;6128;59.340;18.040;2023-07-31T04:00:19;17.10;99.90
12130;DHT22;6128;59.340;18.040;2023-07-31T04:02:49;17.10;99.90
12130;DHT22;6128;59.340;18.040;2023-07-31T04:05:16;17.30;99.90
12130;DHT22;6128;59.340;18.040;2023-07-31T04:07:43;17.30;99.90
12130;DHT22;6128;59.340;18.040;2023-07-31T04:10:10;17.40;99.90
12130;DHT22;6128;59.340;18.040;2023-07-31T04:12:37;17.50;99.90
12130;DHT22;6128;59.340;18.040;2023-07-31T04:15:05;17.50;99.90
12130;DHT22;6128;59.340;18.040;2023-07-31T04:17:33;17.50;99.90
12130;DHT22;6128;59.340;18.040;2023-07-31T04:20:01;17.50;99.90
12130;DHT22;6128;59.340;18.040;2023-07-31T04:22:28;17.50;99.90
12130;DHT22;6128;59.340;18.040;2023-07-31T04:24:55;17.60;99.90
12130;DHT22;6128;59.340;18.040;2023-07-31T04:27:22;17.50;99.90
12130;DHT22;6128;59.340;18.040;2023-07-31T04:29:49;17.50;99.90
12130;DHT22;6128;59.340;18.040;2023-07-31T04:32:16;17.40;99.90
12130;DHT22;6128;59.340;18.040;2023-07-31T04:34:45;17.40;99.90
12130;DHT22;6128;59.340;18.040;2023-07-31T04:37:13;17.30;99.90
12130;DHT22;6128;59.340;18.040;2023-07-31T04:39:40;17.40;99.90
12130;DHT22;6128;59.340;18.040;2023-07-31T04:42:07;17.40;99.90
12130;DHT22;6128;59.340;18.040;2023-07-31T04:44:34;17.50;99.90
12130;DHT22;6128;59.340;18.040;2023-07-31T04:47:02;17.50;99.90
12130;DHT22;6128;59.340;18.040;2023-07-31T04:49:29;17.60;99.90
12130;DHT22;6128;59.340;18.040;2023-07-31T04:51:56;17.70;99.90
12130;DHT22;6128;59.340;18.040;2023-07-31T04:54:24;17.80;99.90
12130;DHT22;6128;59.340;18.040;2023-07-31T04:56:51;17.90;99.90
12130;DHT22;6128;59.340;18.040;2023-07-31T04:59:19;17.90;99.90
12130;DHT22;6128;59.340;18.040;2023-07-31T05:01:46;18.00;99.90
12130;DHT22;6128;59.340;18.040;2023-07-31T05:04:13;17.80;99.90
12130;DHT22;6128;59.340;18.040;2023-07-31T05:06:40;17.60;99.90
12130;DHT22;6128;59.340;18.040;2023-07-31T05:09:08;17.60;99.90
12130;DHT22;6128;59.340;18.040;2023-07-31T05:11:37;17.50;99.90
12130;DHT22;6128;59.340;18.040;2023-07-31T05:14:06;17.40;99.90
12130;DHT22;6128;59.340;18.040;2023-07-31T05:16:33;17.40;99.90
12130;DHT22;6128;59.340;18.040;2023-07-31T05:19:00;17.40;99.90
12130;DHT22;6128;59.340;18.040;2023-07-31T05:21:27;17.40;99.90
12130;DHT22;6128;59.340;18.040;2023-07-31T05:23:54;17.40;99.90
12130;DHT22;6128;59.340;18.040;2023-07-31T05:26:21;17.40;99.90
12130;DHT22;6128;59.340;18.040;2023-07-31T05:28:50;17.50;99.90
12130;DHT22;6128;59.340;18.040;2023-07-31T05:31:17;17.50;99.90
12130;DHT22;6128;59.340;18.040;2023-07-31T05:33:44;17.40;99.90
12130;DHT22;6128;59.340;18.040;2023-07-31T05:36:11;17.40;99.90
12130;DHT22;6128;59.340;18.040;2023-07-31T05:38:38;17.40;99.90
12130;DHT22;6128;59.340;18.040;2023-07-31T05:41:05;17.50;99.90
12130;DHT22;6128;59.340;18.040;2023-07-31T05:43:32;17.50;99.90
12130;DHT22;6128;59.340;18.040;2023-07-31T05:46:00;17.50;99.90
12130;DHT22;6128;59.340;18.040;2023-07-31T05:48:28;17.60;99.90
12130;DHT22;6128;59.340;18.040;2023-07-31T05:50:55;17.70;99.90
12130;DHT22;6128;59.340;18.040;2023-07-31T05:53:22;17.70;99.90
12130;DHT22;6128;59.340;18.040;2023-07-31T05:55:49;17.60;99.90
12130;DHT22;6128;59.340;18.040;2023-07-31T05:58:16;17.50;99.90
12130;DHT22;6128;59.340;18.040;2023-07-31T06:00:43;17.50;99.90
12130;DHT22;6128;59.340;18.040;2023-07-31T06:03:12;17.50;99.90
12130;DHT22;6128;59.340;18.040;2023-07-31T06:05:39;17.50;99.90
12130;DHT22;6128;59.340;18.040;2023-07-31T06:08:06;17.60;99.90
12130;DHT22;6128;59.340;18.040;2023-07-31T06:10:33;17.60;99.90
12130;DHT22;6128;59.340;18.040;2023-07-31T06:13:00;17.70;99.90
12130;DHT22;6128;59.340;18.040;2023-07-31T06:15:27;17.80;99.90
12130;DHT22;6128;59.340;18.040;2023-07-31T06:17:54;17.80;99.90
12130;DHT22;6128;59.340;18.040;2023-07-31T06:20:23;17.80;99.90
12130;DHT22;6128;59.340;18.040;2023-07-31T06:22:50;17.90;99.90
12130;DHT22;6128;59.340;18.040;2023-07-31T06:25:17;18.00;99.90
12130;DHT22;6128;59.340;18.040;2023-07-31T06:27:45;18.00;99.90
12130;DHT22;6128;59.340;18.040;2023-07-31T06:30:12;18.10;99.90
12130;DHT22;6128;59.340;18.040;2023-07-31T06:32:39;18.00;99.90
12130;DHT22;6128;59.340;18.040;2023-07-31T06:35:07;18.00;99.90
12130;DHT22;6128;59.340;18.040;2023-07-31T06:37:36;18.00;99.90
12130;DHT22;6128;59.340;18.040;2023-07-31T06:40:06;18.10;99.90
12130;DHT22;6128;59.340;18.040;2023-07-31T06:42:34;18.10;99.90
12130;DHT22;6128;59.340;18.040;2023-07-31T06:45:01;18.10;99.90
12130;DHT22;6128;59.340;18.040;2023-07-31T06:47:29;18.20;99.90
12130;DHT22;6128;59.340;18.040;2023-07-31T06:49:56;18.30;99.90
12130;DHT22;6128;59.340;18.040;2023-07-31T06:52:23;18.30;99.90
12130;DHT22;6128;59.340;18.040;2023-07-31T06:55:02;18.30;99.90
12130;DHT22;6128;59.340;18.040;2023-07-31T06:57:30;18.20;99.90
12130;DHT22;6128;59.340;18.040;2023-07-31T06:59:57;18.20;99.90
12130;DHT22;6128;59.340;18.040;2023-07-31T07:02:25;18.20;99.90
12130;DHT22;6128;59.340;18.040;2023-07-31T07:04:52;18.10;99.90
12130;DHT22;6128;59.340;18.040;2023-07-31T07:07:19;18.00;99.90
12130;DHT22;6128;59.340;18.040;2023-07-31T07:09:46;17.90;99.90
12130;DHT22;6128;59.340;18.040;2023-07-31T07:12:14;17.80;99.90
12130;DHT22;6128;59.340;18.040;2023-07-31T07:14:41;17.80;99.90
12130;DHT22;6128;59.340;18.040;2023-07-31T07:17:08;17.70;99.90
12130;DHT22;6128;59.340;18.040;2023-07-31T07:19:35;17.50;99.90
12130;DHT22;6128;59.340;18.040;2023-07-31T07:22:03;17.40;99.90
12130;DHT22;6128;59.340;18.040;2023-07-31T07:24:30;17.20;99.90
12130;DHT22;6128;59.340;18.040;2023-07-31T07:26:57;17.10;99.90
12130;DHT22;6128;59.340;18.040;2023-07-31T07:29:25;17.10;99.90
12130;DHT22;6128;59.340;18.040;2023-07-31T07:31:52;17.10;99.90
12130;DHT22;6128;59.340;18.040;2023-07-31T07:34:19;17.10;99.90
12130;DHT22;6128;59.340;18.040;2023-07-31T07:36:49;17.10;99.90
12130;DHT22;6128;59.340;18.040;2023-07-31T07:39:16;17.10;99.90
12130;DHT22;6128;59.340;18.040;2023-07-31T07:41:43;17.00;99.90
12130;DHT22;6128;59.340;18.040;2023-07-31T07:44:10;16.90;99.90
12130;DHT22;6128;59.340;18.040;2023-07-31T07:46:38;16.80;99.90
12130;DHT22;6128;59.340;18.040;2023-07-31T07:49:06;16.60;99.90
12130;DHT22;6128;59.340;18.040;2023-07-31T07:51:33;16.50;99.90
12130;DHT22;6128;59.340;18.040;2023-07-31T07:54:00;16.50;99.90
12130;DHT22;6128;59.340;18.040;2023-07-31T07:56:27;16.40;99.90
12130;DHT22;6128;59.340;18.040;2023-07-31T07:58:55;16.30;99.90
12130;DHT22;6128;59.340;18.040;2023-07-31T08:01:22;16.20;99.90
12130;DHT22;6128;59.340;18.040;2023-07-31T08:03:50;16.20;99.90
12130;DHT22;6128;59.340;18.040;2023-07-31T08:06:17;16.10;99.90
12130;DHT22;6128;59.340;18.040;2023-07-31T08:08:44;16.00;99.90
12130;DHT22;6128;59.340;18.040;2023-07-31T08:11:11;16.00;99.90
12130;DHT22;6128;59.340;18.040;2023-07-31T08:13:38;15.90;99.90
12130;DHT22;6128;59.340;18.040;2023-07-31T08:16:06;15.90;99.90
12130;DHT22;6128;59.340;18.040;2023-07-31T08:18:33;15.90;99.90
12130;DHT22;6128;59.340;18.040;2023-07-31T08:21:02;15.90;99.90
12130;DHT22;6128;59.340;18.040;2023-07-31T08:23:29;15.90;99.90
12130;DHT22;6128;59.340;18.040;2023-07-31T08:25:56;15.90;99.90
12130;DHT22;6128;59.340;18.040;2023-07-31T08:28:23;15.90;99.90
12130;DHT22;6128;59.340;18.040;2023-07-31T08:30:50;16.00;99.90
12130;DHT22;6128;59.340;18.040;2023-07-31T08:33:17;16.00;99.90
12130;DHT22;6128;59.340;18.040;2023-07-31T08:35:44;16.10;99.90
12130;DHT22;6128;59.340;18.040;2023-07-31T08:38:13;16.10;99.90
12130;DHT22;6128;59.340;18.040;2023-07-31T08:40:40;16.10;99.90
12130;DHT22;6128;59.340;18.040;2023-07-31T08:43:09;16.10;99.90
12130;DHT22;6128;59.340;18.040;2023-07-31T08:45:36;16.10;99.90
12130;DHT22;6128;59.340;18.040;2023-07-31T08:48:04;16.20;99.90
12130;DHT22;6128;59.340;18.040;2023-07-31T08:50:31;16.20;99.90
12130;DHT22;6128;59.340;18.040;2023-07-31T08:52:58;16.30;99.90
12130;DHT22;6128;59.340;18.040;2023-07-31T08:55:27;16.40;99.90
12130;DHT22;6128;59.340;18.040;2023-07-31T08:57:55;16.60;99.90
12130;DHT22;6128;59.340;18.040;2023-07-31T09:00:23;16.80;99.90
12130;DHT22;6128;59.340;18.040;2023-07-31T09:02:55;16.90;99.90
12130;DHT22;6128;59.340;18.040;2023-07-31T09:05:23;17.00;99.90
12130;DHT22;6128;59.340;18.040;2023-07-31T09:07:53;17.20;99.90
12130;DHT22;6128;59.340;18.040;2023-07-31T09:10:22;17.40;99.90
12130;DHT22;6128;59.340;18.040;2023-07-31T09:12:51;17.60;99.90
12130;DHT22;6128;59.340;18.040;2023-07-31T09:15:19;17.90;99.90
12130;DHT22;6128;59.340;18.040;2023-07-31T09:17:46;18.10;99.90
12130;DHT22;6128;59.340;18.040;2023-07-31T09:20:14;18.20;99.90
12130;DHT22;6128;59.340;18.040;2023-07-31T09:22:42;18.10;99.90
12130;DHT22;6128;59.340;18.040;2023-07-31T09:25:16;18.10;99.90
12130;DHT22;6128;59.340;18.040;2023-07-31T09:27:48;18.20;99.90
12130;DHT22;6128;59.340;18.040;2023-07-31T09:30:17;18.30;99.90
12130;DHT22;6128;59.340;18.040;2023-07-31T09:32:45;18.50;99.90
12130;DHT22;6128;59.340;18.040;2023-07-31T09:35:20;18.80;99.90
12130;DHT22;6128;59.340;18.040;2023-07-31T09:37:51;19.00;99.90
12130;DHT22;6128;59.340;18.040;2023-07-31T09:40:29;19.00;99.90
12130;DHT22;6128;59.340;18.040;2023-07-31T09:42:57;19.00;99.90
12130;DHT22;6128;59.340;18.040;2023-07-31T09:45:26;19.00;99.90
12130;DHT22;6128;59.340;18.040;2023-07-31T09:47:54;19.00;99.90
12130;DHT22;6128;59.340;18.040;2023-07-31T09:50:22;19.00;99.90
12130;DHT22;6128;59.340;18.040;2023-07-31T09:52:50;18.90;99.90
12130;DHT22;6128;59.340;18.040;2023-07-31T09:55:18;19.00;99.90
12130;DHT22;6128;59.340;18.040;2023-07-31T09:57:46;19.00;99.90
12130;DHT22;6128;59.340;18.040;2023-07-31T10:00:15;19.00;99.90
12130;DHT22;6128;59.340;18.040;2023-07-31T10:02:45;19.20;99.90
12130;DHT22;6128;59.340;18.040;2023-07-31T10:05:14;19.40;99.90
12130;DHT22;6128;59.340;18.040;2023-07-31T10:07:43;19.50;99.90
12130;DHT22;6128;59.340;18.040;2023-07-31T10:10:13;19.60;99.90
12130;DHT22;6128;59.340;18.040;2023-07-31T10:12:42;19.70;99.90
12130;DHT22;6128;59.340;18.040;2023-07-31T10:15:10;19.80;99.90
12130;DHT22;6128;59.340;18.040;2023-07-31T10:17:38;19.70;99.90
12130;DHT22;6128;59.340;18.040;2023-07-31T10:20:08;19.60;99.90
12130;DHT22;6128;59.340;18.040;2023-07-31T10:22:36;19.60;99.90
12130;DHT22;6128;59.340;18.040;2023-07-31T10:25:04;19.60;99.90
12130;DHT22;6128;59.340;18.040;2023-07-31T10:27:33;19.60;99.90
12130;DHT22;6128;59.340;18.040;2023-07-31T10:30:04;19.60;99.90
12130;DHT22;6128;59.340;18.040;2023-07-31T10:32:32;19.60;99.90
12130;DHT22;6128;59.340;18.040;2023-07-31T10:35:01;19.70;99.90
12130;DHT22;6128;59.340;18.040;2023-07-31T10:37:37;19.70;99.90
12130;DHT22;6128;59.340;18.040;2023-07-31T10:40:06;19.70;99.90
12130;DHT22;6128;59.340;18.040;2023-07-31T10:42:35;19.60;99.90
12130;DHT22;6128;59.340;18.040;2023-07-31T10:45:04;19.30;99.90
12130;DHT22;6128;59.340;18.040;2023-07-31T10:47:36;19.10;99.90
12130;DHT22;6128;59.340;18.040;2023-07-31T10:50:22;19.00;99.90
12130;DHT22;6128;59.340;18.040;2023-07-31T10:52:51;19.00;99.90
12130;DHT22;6128;59.340;18.040;2023-07-31T10:55:28;19.10;99.90
12130;DHT22;6128;59.340;18.040;2023-07-31T10:57:56;19.20;99.90
12130;DHT22;6128;59.340;18.040;2023-07-31T11:00:26;19.30;99.90
12130;DHT22;6128;59.340;18.040;2023-07-31T11:02:57;19.40;99.90
12130;DHT22;6128;59.340;18.040;2023-07-31T11:05:40;19.40;99.90
12130;DHT22;6128;59.340;18.040;2023-07-31T11:08:14;19.50;99.90
12130;DHT22;6128;59.340;18.040;2023-07-31T11:10:42;19.50;99.90
12130;DHT22;6128;59.340;18.040;2023-07-31T11:13:10;19.40;99.90
12130;DHT22;6128;59.340;18.040;2023-07-31T11:15:37;19.40;99.90
12130;DHT22;6128;59.340;18.040;2023-07-31T11:18:04;19.30;99.90
12130;DHT22;6128;59.340;18.040;2023-07-31T11:20:34;19.00;99.90
12130;DHT22;6128;59.340;18.040;2023-07-31T11:23:02;19.00;99.90
12130;DHT22;6128;59.340;18.040;2023-07-31T11:25:31;19.00;99.90
12130;DHT22;6128;59.340;18.040;2023-07-31T11:28:03;18.90;99.90
12130;DHT22;6128;59.340;18.040;2023-07-31T11:30:30;18.80;99.90
12130;DHT22;6128;59.340;18.040;2023-07-31T11:32:58;18.80;99.90
12130;DHT22;6128;59.340;18.040;2023-07-31T11:35:25;18.70;99.90
12130;DHT22;6128;59.340;18.040;2023-07-31T11:37:52;18.60;99.90
12130;DHT22;6128;59.340;18.040;2023-07-31T11:40:19;18.60;99.90
12130;DHT22;6128;59.340;18.040;2023-07-31T11:42:48;18.60;99.90
12130;DHT22;6128;59.340;18.040;2023-07-31T11:45:15;18.50;99.90
12130;DHT22;6128;59.340;18.040;2023-07-31T11:47:42;18.40;99.90
12130;DHT22;6128;59.340;18.040;2023-07-31T11:50:11;18.40;99.90
12130;DHT22;6128;59.340;18.040;2023-07-31T11:52:41;18.40;99.90
12130;DHT22;6128;59.340;18.040;2023-07-31T11:55:10;18.50;99.90
12130;DHT22;6128;59.340;18.040;2023-07-31T11:57:40;18.50;99.90
12130;DHT22;6128;59.340;18.040;2023-07-31T12:00:10;18.50;99.90
12130;DHT22;6128;59.340;18.040;2023-07-31T12:02:39;18.50;99.90
12130;DHT22;6128;59.340;18.040;2023-07-31T12:05:09;18.40;99.90
12130;DHT22;6128;59.340;18.040;2023-07-31T12:07:47;18.30;99.90
12130;DHT22;6128;59.340;18.040;2023-07-31T12:10:24;18.30;99.90
12130;DHT22;6128;59.340;18.040;2023-07-31T12:13:04;18.20;99.90
12130;DHT22;6128;59.340;18.040;2023-07-31T12:15:37;18.10;99.90
12130;DHT22;6128;59.340;18.040;2023-07-31T12:18:05;17.90;99.90
12130;DHT22;6128;59.340;18.040;2023-07-31T12:20:34;17.80;99.90
12130;DHT22;6128;59.340;18.040;2023-07-31T12:23:02;17.60;99.90
12130;DHT22;6128;59.340;18.040;2023-07-31T12:25:31;17.50;99.90
12130;DHT22;6128;59.340;18.040;2023-07-31T12:28:04;17.40;99.90
12130;DHT22;6128;59.340;18.040;2023-07-31T12:30:33;17.40;99.90
12130;DHT22;6128;59.340;18.040;2023-07-31T12:33:05;17.40;99.90
12130;DHT22;6128;59.340;18.040;2023-07-31T12:35:36;17.30;99.90
12130;DHT22;6128;59.340;18.040;2023-07-31T12:38:04;17.30;99.90
12130;DHT22;6128;59.340;18.040;2023-07-31T12:40:31;17.30;99.90
12130;DHT22;6128;59.340;18.040;2023-07-31T12:43:01;17.30;99.90
12130;DHT22;6128;59.340;18.040;2023-07-31T12:45:29;17.40;99.90
12130;DHT22;6128;59.340;18.040;2023-07-31T12:47:56;17.40;99.90
12130;DHT22;6128;59.340;18.040;2023-07-31T12:50:25;17.50;99.90
12130;DHT22;6128;59.340;18.040;2023-07-31T12:52:53;17.50;99.90
12130;DHT22;6128;59.340;18.040;2023-07-31T12:55:21;17.50;99.90
12130;DHT22;6128;59.340;18.040;2023-07-31T12:57:48;17.50;99.90
12130;DHT22;6128;59.340;18.040;2023-07-31T13:00:15;17.40;99.90
12130;DHT22;6128;59.340;18.040;2023-07-31T13:02:42;17.40;99.90
12130;DHT22;6128;59.340;18.040;2023-07-31T13:05:09;17.30;99.90
12130;DHT22;6128;59.340;18.040;2023-07-31T13:07:38;17.40;99.90
12130;DHT22;6128;59.340;18.040;2023-07-31T13:10:06;17.40;99.90
12130;DHT22;6128;59.340;18.040;2023-07-31T13:12:34;17.50;99.90
12130;DHT22;6128;59.340;18.040;2023-07-31T13:15:01;17.60;99.90
12130;DHT22;6128;59.340;18.040;2023-07-31T13:17:28;17.70;99.90
12130;DHT22;6128;59.340;18.040;2023-07-31T13:19:55;17.90;99.90
12130;DHT22;6128;59.340;18.040;2023-07-31T13:22:22;18.00;99.90
12130;DHT22;6128;59.340;18.040;2023-07-31T13:24:50;18.20;99.90
12130;DHT22;6128;59.340;18.040;2023-07-31T13:27:18;18.30;99.90
12130;DHT22;6128;59.340;18.040;2023-07-31T13:29:47;18.30;99.90
12130;DHT22;6128;59.340;18.040;2023-07-31T13:32:15;18.30;99.90
12130;DHT22;6128;59.340;18.040;2023-07-31T13:34:42;18.20;99.90
12130;DHT22;6128;59.340;18.040;2023-07-31T13:37:09;18.20;99.90
12130;DHT22;6128;59.340;18.040;2023-07-31T13:39:36;18.20;99.90
12130;DHT22;6128;59.340;18.040;2023-07-31T13:42:06;18.20;99.90
12130;DHT22;6128;59.340;18.040;2023-07-31T13:44:34;18.20;99.90
12130;DHT22;6128;59.340;18.040;2023-07-31T13:47:01;18.10;99.90
12130;DHT22;6128;59.340;18.040;2023-07-31T13:49:29;18.10;99.90
12130;DHT22;6128;59.340;18.040;2023-07-31T13:51:56;18.00;99.90
12130;DHT22;6128;59.340;18.040;2023-07-31T13:54:23;18.00;99.90
12130;DHT22;6128;59.340;18.040;2023-07-31T13:56:51;18.00;99.90
12130;DHT22;6128;59.340;18.040;2023-07-31T13:59:20;18.00;99.90
12130;DHT22;6128;59.340;18.040;2023-07-31T14:01:48;18.00;99.90
12130;DHT22;6128;59.340;18.040;2023-07-31T14:04:15;18.00;99.90
12130;DHT22;6128;59.340;18.040;2023-07-31T14:06:43;17.90;99.90
12130;DHT22;6128;59.340;18.040;2023-07-31T14:09:10;17.90;99.90
12130;DHT22;6128;59.340;18.040;2023-07-31T14:11:38;17.90;99.90
12130;DHT22;6128;59.340;18.040;2023-07-31T14:14:05;17.80;99.90
12130;DHT22;6128;59.340;18.040;2023-07-31T14:16:33;17.70;99.90
12130;DHT22;6128;59.340;18.040;2023-07-31T14:19:00;17.70;99.90
12130;DHT22;6128;59.340;18.040;2023-07-31T14:21:28;17.60;99.90
12130;DHT22;6128;59.340;18.040;2023-07-31T14:23:55;17.50;99.90
12130;DHT22;6128;59.340;18.040;2023-07-31T14:26:22;17.50;99.90
12130;DHT22;6128;59.340;18.040;2023-07-31T14:28:49;17.40;99.90
12130;DHT22;6128;59.340;18.040;2023-07-31T14:31:16;17.30;99.90
12130;DHT22;6128;59.340;18.040;2023-07-31T14:33:45;17.30;99.90
12130;DHT22;6128;59.340;18.040;2023-07-31T14:36:12;17.20;99.90
12130;DHT22;6128;59.340;18.040;2023-07-31T14:38:39;17.10;99.90
12130;DHT22;6128;59.340;18.040;2023-07-31T14:41:07;17.10;99.90
12130;DHT22;6128;59.340;18.040;2023-07-31T14:43:34;17.10;99.90
12130;DHT22;6128;59.340;18.040;2023-07-31T14:46:01;17.00;99.90
12130;DHT22;6128;59.340;18.040;2023-07-31T14:48:28;16.90;99.90
12130;DHT22;6128;59.340;18.040;2023-07-31T14:50:57;16.90;99.90
12130;DHT22;6128;59.340;18.040;2023-07-31T14:53:24;16.80;99.90
12130;DHT22;6128;59.340;18.040;2023-07-31T14:55:52;16.80;99.90
12130;DHT22;6128;59.340;18.040;2023-07-31T14:58:19;16.70;99.90
12130;DHT22;6128;59.340;18.040;2023-07-31T15:00:46;16.50;99.90
12130;DHT22;6128;59.340;18.040;2023-07-31T15:03:13;16.40;99.90
12130;DHT22;6128;59.340;18.040;2023-07-31T15:05:40;16.40;99.90
12130;DHT22;6128;59.340;18.040;2023-07-31T15:08:08;16.50;99.90
12130;DHT22;6128;59.340;18.040;2023-07-31T15:10:36;16.50;99.90
12130;DHT22;6128;59.340;18.040;2023-07-31T15:13:03;16.40;99.90
12130;DHT22;6128;59.340;18.040;2023-07-31T15:15:31;16.50;99.90
12130;DHT22;6128;59.340;18.040;2023-07-31T15:17:58;16.50;99.90
12130;DHT22;6128;59.340;18.040;2023-07-31T15:20:26;16.50;99.90
12130;DHT22;6128;59.340;18.040;2023-07-31T15:22:53;16.50;99.90
12130;DHT22;6128;59.340;18.040;2023-07-31T15:25:21;16.50;99.90
12130;DHT22;6128;59.340;18.040;2023-07-31T15:27:48;16.60;99.90
12130;DHT22;6128;59.340;18.040;2023-07-31T15:30:16;16.60;99.90
12130;DHT22;6128;59.340;18.040;2023-07-31T15:32:43;16.70;99.90
12130;DHT22;6128;59.340;18.040;2023-07-31T15:35:14;16.70;99.90